M I D A S
Marine Information and Data Acquisition System
Tripno 1406 of the Zeeleeuw from 2007-09-11 08:00:00 to 2007-09-11 17:00:00
Back to CruiseResearch ActivitiesStationsMapUnderway DataData graphs

EquipmentUnitsComment
TimeDGPSUTC
LatitudeDGPSDM.mWGS84
LongitudeDGPSDM.mWGS84
HeadingGyrodeg 
SOGDGPSknotsSpeed over ground
COGDGPSdegCourse over ground
DepthEcho soundermeters200 kHz
Missing or incorrect values are displayed as -999
Navigation data collected by the RV Zeeleeuw from 2007-09-11 08:00:00 to 2007-09-11 17:00:00
Time Latitude Longitude Heading SOG COG Depth
2007-09-11 08:01:05 51°15.117 2°52.67 300.6 12.7 291 10.7
2007-09-11 08:02:05 51°15.187 2°52.35 298.8 12.7 289 10.4
2007-09-11 08:03:05 51°15.247 2°52.017 296.1 13.3 284 11.6
2007-09-11 08:04:05 51°15.3 2°51.685 296.5 12.9 286 11.8
2007-09-11 08:05:05 51°15.358 2°51.353 294.9 13 285 12.7
2007-09-11 08:06:05 51°15.413 2°51.022 295.2 12.9 287 13.2
2007-09-11 08:07:05 51°15.477 2°50.7 299.3 12.4 291 12.6
2007-09-11 08:08:06 51°15.559 2°50.396 304.5 12.2 293 12.9
2007-09-11 08:09:05 51°15.647 2°50.116 311.2 11.9 304 13.1
2007-09-11 08:10:05 51°15.747 2°49.858 312.6 11.5 303 12.6
2007-09-11 08:11:05 51°15.854 2°49.601 312.7 11.5 305 9.9
2007-09-11 08:12:05 51°15.958 2°49.34 311.7 12 302 11
2007-09-11 08:13:05 51°16.056 2°49.068 301.7 12 288 12.7
2007-09-11 08:14:05 51°16.054 2°48.836 267.1 7 258 13.4
2007-09-11 08:15:05 51°16.017 2°48.68 259.9 5.6 248 13.9
2007-09-11 08:16:05 51°15.985 2°48.578 265.2 3.6 242 14.2
2007-09-11 08:17:05 51°15.956 2°48.513 263.8 2.7 229 14
2007-09-11 08:18:05 51°15.927 2°48.468 263.3 3.4 198 12.8
2007-09-11 08:19:05 51°15.902 2°48.433 259.6 2 217 14.4
2007-09-11 08:20:05 51°15.875 2°48.404 254.8 2.2 209 13.1
2007-09-11 08:21:05 51°15.849 2°48.383 245.3 1.6 230 12.9
2007-09-11 08:22:05 51°15.822 2°48.36 244.3 2.3 230 12.3
2007-09-11 08:23:05 51°15.79 2°48.293 267.1 3.5 239 12.5
2007-09-11 08:24:05 51°15.768 2°48.219 278.3 3.2 253 12.7
2007-09-11 08:25:05 51°15.764 2°48.119 302.6 4.2 287 13.2
2007-09-11 08:26:05 51°15.77 2°48.036 310.6 2.7 276 13.4
2007-09-11 08:27:05 51°15.776 2°47.953 312.3 3.3 282 14.1
2007-09-11 08:28:05 51°15.787 2°47.862 309 4 284 15
2007-09-11 08:29:05 51°15.801 2°47.76 307.6 4.7 287 14.7
2007-09-11 08:30:05 51°15.813 2°47.638 295.4 4.7 273 15.4
2007-09-11 08:31:05 51°15.811 2°47.53 290.1 3.9 259 15.8
2007-09-11 08:32:05 51°15.802 2°47.438 284.1 3.4 260 15.5
2007-09-11 08:33:05 51°15.792 2°47.339 285.4 4.4 266 15.3
2007-09-11 08:34:05 51°15.786 2°47.22 285.3 4.5 266 16.4
2007-09-11 08:35:05 51°15.78 2°47.106 279.4 4.1 265 15.8
2007-09-11 08:36:05 51°15.765 2°47.002 280.2 4.3 262 16.3
2007-09-11 08:37:05 51°15.752 2°46.889 276.4 4 256 15.9
2007-09-11 08:38:05 51°15.736 2°46.785 273.6 4 261 16.9
2007-09-11 08:39:05 51°15.719 2°46.676 274.4 4 263 16.9
2007-09-11 08:40:05 51°15.705 2°46.56 277.8 4 263 17.2
2007-09-11 08:41:05 51°15.693 2°46.454 278.9 4.2 263 17.1
2007-09-11 08:42:05 51°15.678 2°46.351 277.4 4.2 255 17.5
2007-09-11 08:43:05 51°15.66 2°46.242 264.8 4.5 252 17.2
2007-09-11 08:44:05 51°15.63 2°46.132 255.3 4.6 238 17.7
2007-09-11 08:45:05 51°15.596 2°46.03 254.6 4.5 237 17.5
2007-09-11 08:46:05 51°15.563 2°45.926 257 4.5 243 17.9
2007-09-11 08:47:05 51°15.528 2°45.82 250.4 4.6 241 18
2007-09-11 08:48:05 51°15.492 2°45.719 250.5 4.3 234 17.7
2007-09-11 08:49:05 51°15.453 2°45.617 248.1 4.6 236 18
2007-09-11 08:50:05 51°15.413 2°45.515 253 4.4 237 17.8
2007-09-11 08:51:05 51°15.378 2°45.411 252.8 4.5 244 18
2007-09-11 08:52:05 51°15.341 2°45.308 247.7 4.3 245 18.3
2007-09-11 08:53:05 51°15.304 2°45.215 249.4 4.3 248 17.3
2007-09-11 08:54:05 51°15.268 2°45.112 253.3 4.4 245 17.8
2007-09-11 08:55:05 51°15.231 2°45.005 249.6 4.7 240 18
2007-09-11 08:56:05 51°15.192 2°44.904 249 4.2 239 17.4
2007-09-11 08:57:05 51°15.153 2°44.806 246.1 5 237 17.8
2007-09-11 08:58:05 51°15.107 2°44.691 244.4 4.9 236 17.8
2007-09-11 08:59:05 51°15.069 2°44.593 248.8 4.4 238 17.7
2007-09-11 09:00:05 51°15.031 2°44.488 249.8 4.9 236 17.6
2007-09-11 09:01:05 51°14.987 2°44.377 245.3 4.7 234 18
2007-09-11 09:02:05 51°14.948 2°44.276 248.2 4.2 241 17.5
2007-09-11 09:03:05 51°14.919 2°44.191 263.7 3.2 242 17.2
2007-09-11 09:04:05 51°14.896 2°44.115 276.5 3.3 243 17.9
2007-09-11 09:05:05 51°14.88 2°44.041 285.9 3 246 17.8
2007-09-11 09:06:05 51°14.865 2°43.979 292.8 2.3 243 18.3
2007-09-11 09:07:05 51°14.844 2°43.933 291 2.4 227 17.8
2007-09-11 09:08:05 51°14.823 2°43.896 291.6 1.6 225 17.7
2007-09-11 09:09:05 51°14.799 2°43.863 287.5 1.5 230 17.6
2007-09-11 09:10:05 51°14.773 2°43.835 280.4 1.8 213 17.5
2007-09-11 09:11:05 51°14.747 2°43.812 271.5 1.8 209 17.3
2007-09-11 09:12:05 51°14.723 2°43.791 268.1 1.7 206 17
2007-09-11 09:13:05 51°14.697 2°43.757 270.4 2.5 241 17.7
2007-09-11 09:14:05 51°14.711 2°43.619 310.6 7.5 295 18
2007-09-11 09:15:05 51°14.79 2°43.425 317.5 9.9 305 18.9
2007-09-11 09:16:05 51°14.887 2°43.202 314.5 10.3 305 17
2007-09-11 09:17:05 51°14.979 2°42.969 313.8 10 302 13.3
2007-09-11 09:18:05 51°15.071 2°42.747 314.6 10.2 303 14.2
2007-09-11 09:19:05 51°15.164 2°42.522 315.2 10.2 306 14.5
2007-09-11 09:20:05 51°15.257 2°42.298 314.9 10.3 302 13.1
2007-09-11 09:21:05 51°15.345 2°42.08 315.9 9.6 305 10.9
2007-09-11 09:22:06 51°15.443 2°41.872 318.8 9.3 312 10.4
2007-09-11 09:23:06 51°15.547 2°41.682 322.6 9.6 312 -999
2007-09-11 09:24:05 51°15.653 2°41.488 321.3 10.1 312 11.2
2007-09-11 09:25:06 51°15.765 2°41.285 320 9.9 310 -999
2007-09-11 09:26:05 51°15.87 2°41.094 319.6 9.4 310 13.8
2007-09-11 09:27:05 51°15.971 2°40.899 323.5 9.6 314 17
2007-09-11 09:28:07 51°16.084 2°40.712 325.1 9.2 312 18.9
2007-09-11 09:29:06 51°16.195 2°40.533 328.6 9.7 315 20.8
2007-09-11 09:30:05 51°16.311 2°40.35 328 10.1 316 22
2007-09-11 09:31:05 51°16.434 2°40.175 330.9 9.8 317 21.6
2007-09-11 09:32:06 51°16.558 2°39.996 330.5 9.7 317 21.4
2007-09-11 09:33:06 51°16.668 2°39.823 330.2 8.9 315 19.9
2007-09-11 09:34:05 51°16.784 2°39.656 330.3 9.7 318 17.7
2007-09-11 09:35:05 51°16.903 2°39.489 329.8 9.7 317 13.5
2007-09-11 09:36:05 51°17.025 2°39.325 330.4 9.3 322 12.2
2007-09-11 09:37:05 51°17.149 2°39.163 330.5 9.1 318 -999
2007-09-11 09:38:05 51°17.233 2°39.04 330.7 5.6 316 13.6
2007-09-11 09:39:05 51°17.286 2°38.943 328.3 4.5 308 20.5
2007-09-11 09:40:05 51°17.332 2°38.851 332.6 4.6 310 23.1
2007-09-11 09:41:05 51°17.354 2°38.748 303.8 3.3 277 25.1
2007-09-11 09:42:05 51°17.347 2°38.68 297.3 2.2 240 25.6
2007-09-11 09:43:05 51°17.325 2°38.642 285.8 1.8 229 26.1
2007-09-11 09:44:05 51°17.3 2°38.613 272.3 1.6 213 26.3
2007-09-11 09:45:05 51°17.277 2°38.592 265.6 1.4 212 25.2
2007-09-11 09:46:05 51°17.253 2°38.575 257 1.6 210 25.8
2007-09-11 09:47:05 51°17.227 2°38.531 264.5 3 234 26.2
2007-09-11 09:48:05 51°17.208 2°38.456 282.7 3.5 240 26.9
2007-09-11 09:49:05 51°17.197 2°38.374 292.5 3.6 274 26.7
2007-09-11 09:50:05 51°17.207 2°38.275 317 3.3 288 27.5
2007-09-11 09:51:05 51°17.23 2°38.191 319.4 3.7 295 27.1
2007-09-11 09:52:05 51°17.252 2°38.094 309.4 3.8 284 27.6
2007-09-11 09:53:05 51°17.264 2°38.001 308.6 3.6 285 27.3
2007-09-11 09:54:05 51°17.274 2°37.898 298.3 4 276 27.3
2007-09-11 09:55:05 51°17.272 2°37.801 292.5 3.5 257 27.2
2007-09-11 09:56:05 51°17.259 2°37.712 282.7 3.7 251 27.3
2007-09-11 09:57:05 51°17.247 2°37.614 282.3 3.7 261 27.2
2007-09-11 09:58:05 51°17.231 2°37.506 277.2 4.3 258 27.7
2007-09-11 09:59:05 51°17.213 2°37.396 273.6 4.1 253 27.7
2007-09-11 10:00:05 51°17.187 2°37.299 267.8 4 241 27.8
2007-09-11 10:01:05 51°17.161 2°37.206 263.8 3.8 242 27.8
2007-09-11 10:02:05 51°17.13 2°37.114 258.3 4 241 27.8
2007-09-11 10:03:05 51°17.09 2°37.018 244.3 4.5 235 28.1
2007-09-11 10:04:05 51°17.04 2°36.929 239.1 4.4 225 27.5
2007-09-11 10:05:05 51°16.99 2°36.849 237.3 4.2 219 28.3
2007-09-11 10:06:05 51°16.943 2°36.771 239.1 4.1 228 28.9
2007-09-11 10:07:05 51°16.894 2°36.689 239.5 4.4 222 29
2007-09-11 10:08:05 51°16.845 2°36.605 238.6 4.4 218 27.9
2007-09-11 10:09:05 51°16.796 2°36.52 237.7 4.2 229 28.1
2007-09-11 10:10:05 51°16.746 2°36.437 234.9 4.2 224 27.2
2007-09-11 10:11:05 51°16.692 2°36.359 230.2 4.5 221 27.5
2007-09-11 10:12:05 51°16.637 2°36.281 230 4.3 223 27.3
2007-09-11 10:13:05 51°16.581 2°36.207 228.6 4.4 217 27.5
2007-09-11 10:14:05 51°16.527 2°36.132 228.3 4.3 232 28.3
2007-09-11 10:15:05 51°16.474 2°36.06 228.8 4.1 232 28.4
2007-09-11 10:16:05 51°16.421 2°35.987 231.4 4.2 224 28.7
2007-09-11 10:17:05 51°16.37 2°35.91 230 4.4 217 28.6
2007-09-11 10:18:06 51°16.315 2°35.834 230.4 4.1 219 27.6
2007-09-11 10:19:05 51°16.264 2°35.762 231.5 4.1 221 27.4
2007-09-11 10:20:05 51°16.212 2°35.689 231.4 4.2 214 27.9
2007-09-11 10:21:05 51°16.16 2°35.617 230.8 4 227 27.6
2007-09-11 10:22:05 51°16.109 2°35.547 229.4 3.9 226 27.9
2007-09-11 10:23:05 51°16.057 2°35.481 229.5 3.9 220 27.8
2007-09-11 10:24:05 51°16.005 2°35.417 229.1 4 220 27.7
2007-09-11 10:25:05 51°15.955 2°35.353 230.8 3.8 217 27.9
2007-09-11 10:26:05 51°15.906 2°35.287 231.9 3.7 230 27.7
2007-09-11 10:27:05 51°15.858 2°35.23 233.1 3 217 27.4
2007-09-11 10:28:05 51°15.829 2°35.19 251.2 2.1 231 27.8
2007-09-11 10:29:06 51°15.804 2°35.147 254.3 2.1 236 27.8
2007-09-11 10:30:06 51°15.783 2°35.109 263.8 1.8 217 28
2007-09-11 10:31:06 51°15.766 2°35.084 270.2 1.9 202 28.3
2007-09-11 10:32:06 51°15.751 2°35.069 276.7 1.1 213 27.9
2007-09-11 10:33:06 51°15.735 2°35.061 279.6 1.1 187 27.7
2007-09-11 10:34:06 51°15.717 2°35.06 275.5 1.5 180 28.6
2007-09-11 10:35:06 51°15.7 2°35.066 269.5 1.9 168 28.8
2007-09-11 10:36:06 51°15.683 2°35.078 258.8 1.1 163 28.7
2007-09-11 10:37:06 51°15.668 2°35.089 247.9 1.2 153 28.7
2007-09-11 10:38:06 51°15.653 2°35.1 242.4 1.3 152 28.6
2007-09-11 10:39:06 51°15.636 2°35.104 240.2 1.3 194 27.8
2007-09-11 10:40:06 51°15.611 2°35.087 239.2 2.4 196 28
2007-09-11 10:41:06 51°15.554 2°35.036 206.8 6.3 193 28.7
2007-09-11 10:42:06 51°15.447 2°35.09 136 7.2 134 27.7
2007-09-11 10:43:06 51°15.414 2°35.274 94.9 7.9 96 27.7
2007-09-11 10:44:06 51°15.372 2°35.481 110.4 8.4 106 27.7
2007-09-11 10:45:06 51°15.323 2°35.697 110.2 8.7 109 25.1
2007-09-11 10:46:06 51°15.277 2°35.919 111.1 8.9 103 20.4
2007-09-11 10:47:06 51°15.229 2°36.142 111 9.4 106 18.2
2007-09-11 10:48:06 51°15.183 2°36.369 110.4 8.7 109 17.6
2007-09-11 10:49:06 51°15.141 2°36.597 109.5 9 105 15.6
2007-09-11 10:50:06 51°15.097 2°36.831 111.6 9.1 111 16.5
2007-09-11 10:51:06 51°15.049 2°37.064 108 9 104 13.3
2007-09-11 10:52:06 51°14.999 2°37.299 111.2 9.3 107 13.2
2007-09-11 10:53:06 51°14.949 2°37.536 111.6 9.7 107 12.8
2007-09-11 10:54:06 51°14.9 2°37.771 110.7 9.5 106 14.1
2007-09-11 10:55:06 51°14.851 2°38.006 112.1 9.4 105 15.5
2007-09-11 10:56:06 51°14.807 2°38.243 104.7 9.3 103 17.8
2007-09-11 10:57:06 51°14.781 2°38.484 101.6 9.3 98 19
2007-09-11 10:58:06 51°14.746 2°38.722 105.5 9.3 104 19
2007-09-11 10:59:06 51°14.706 2°38.956 105.6 9.2 104 18.6
2007-09-11 11:00:06 51°14.669 2°39.194 104.6 9.2 103 18.6
2007-09-11 11:01:06 51°14.632 2°39.429 105.9 9.1 102 17.4
2007-09-11 11:02:06 51°14.595 2°39.666 105.1 9.2 99 16.5
2007-09-11 11:03:06 51°14.559 2°39.907 105.9 9.3 100 15
2007-09-11 11:04:06 51°14.521 2°40.148 105.2 9.4 102 15.2
2007-09-11 11:05:06 51°14.484 2°40.389 105.7 9.5 105 15.8
2007-09-11 11:06:06 51°14.448 2°40.63 103 9.2 103 15.9
2007-09-11 11:07:06 51°14.414 2°40.872 104.4 9.5 103 16.4
2007-09-11 11:08:06 51°14.383 2°41.116 101.6 9.4 97 16.9
2007-09-11 11:09:06 51°14.374 2°41.367 93 9.4 89 16.4
2007-09-11 11:10:06 51°14.365 2°41.616 96.1 9.3 95 16.2
2007-09-11 11:11:06 51°14.357 2°41.863 95.5 9.5 94 19.2
2007-09-11 11:12:06 51°14.349 2°42.112 95.2 9.5 91 20
2007-09-11 11:13:06 51°14.342 2°42.364 95.3 9.7 96 20
2007-09-11 11:14:06 51°14.333 2°42.614 95 9.3 94 19.9
2007-09-11 11:15:06 51°14.324 2°42.864 96.5 9.4 96 19.5
2007-09-11 11:16:06 51°14.313 2°43.112 96.8 9.5 101 19.4
2007-09-11 11:17:06 51°14.308 2°43.361 94 9.4 90 18.7
2007-09-11 11:18:06 51°14.301 2°43.61 94.8 9.4 91 18.2
2007-09-11 11:19:06 51°14.308 2°43.858 86.6 9.5 85 17.5
2007-09-11 11:20:06 51°14.331 2°44.108 84.9 9.6 79 16.4
2007-09-11 11:21:06 51°14.351 2°44.359 85.6 9.5 81 15.5
2007-09-11 11:22:06 51°14.372 2°44.612 84.7 9.5 81 14.5
2007-09-11 11:23:06 51°14.394 2°44.867 83.4 9.7 79 12.9
2007-09-11 11:24:06 51°14.413 2°45.121 86.7 9.6 89 11.3
2007-09-11 11:25:06 51°14.434 2°45.373 86 9.7 85 10.8
2007-09-11 11:26:06 51°14.457 2°45.627 84.8 9.8 78 12
2007-09-11 11:27:06 51°14.48 2°45.884 83.4 9.8 77 13.5
2007-09-11 11:28:06 51°14.506 2°46.142 85.1 9.9 79 15.2
2007-09-11 11:29:06 51°14.53 2°46.402 85.3 10 82 16
2007-09-11 11:30:06 51°14.556 2°46.664 85.2 10 82 15.7
2007-09-11 11:31:06 51°14.576 2°46.926 88.3 10.1 88 15.7
2007-09-11 11:32:06 51°14.596 2°47.184 87.1 9.8 82 15
2007-09-11 11:33:06 51°14.614 2°47.443 89.2 9.6 83 13.9
2007-09-11 11:34:06 51°14.623 2°47.697 93.7 9.7 82 13.3
2007-09-11 11:35:06 51°14.629 2°47.953 92.5 9.7 86 14.4
2007-09-11 11:36:06 51°14.639 2°48.21 92.3 9.6 84 14.2
2007-09-11 11:37:06 51°14.652 2°48.463 90.2 9.5 82 14.7
2007-09-11 11:38:06 51°14.664 2°48.719 91.5 9.6 88 15.5
2007-09-11 11:39:06 51°14.676 2°48.973 91.1 9.7 80 15
2007-09-11 11:40:06 51°14.686 2°49.225 92 9.5 91 15.4
2007-09-11 11:41:06 51°14.701 2°49.477 90.7 9.6 89 15
2007-09-11 11:42:06 51°14.716 2°49.73 91 9.6 86 15
2007-09-11 11:43:06 51°14.73 2°49.983 90.2 9.5 84 14.9
2007-09-11 11:44:06 51°14.744 2°50.235 91.4 9.6 87 14.9
2007-09-11 11:45:06 51°14.756 2°50.486 91.9 9.6 84 15.2
2007-09-11 11:46:06 51°14.767 2°50.738 91.3 9.6 82 14.6
2007-09-11 11:47:06 51°14.779 2°50.991 91.1 9.5 85 14.4
2007-09-11 11:48:06 51°14.79 2°51.239 89.9 9.4 83 14.4
2007-09-11 11:49:06 51°14.801 2°51.451 92.3 6.2 86 13.5
2007-09-11 11:50:06 51°14.806 2°51.577 90.2 3.8 87 14
2007-09-11 11:51:06 51°14.815 2°51.661 85.7 2.7 84 14
2007-09-11 11:52:06 51°14.821 2°51.714 74.4 1.5 81 13.7
2007-09-11 11:53:06 51°14.821 2°51.745 82.3 1.2 92 13.9
2007-09-11 11:54:06 51°14.822 2°51.776 97.3 1.1 87 13.9
2007-09-11 11:55:06 51°14.822 2°51.808 101.8 1.4 73 13.4
2007-09-11 11:56:07 51°14.821 2°51.842 103.8 1.3 103 13.3
2007-09-11 11:57:06 51°14.821 2°51.876 96.5 1.3 93 13.5
2007-09-11 11:58:06 51°14.822 2°51.911 89.8 1.4 74 13.5
2007-09-11 11:59:06 51°14.822 2°51.944 90.8 1.2 104 13.6
2007-09-11 12:00:06 51°14.823 2°51.977 90.6 1.3 103 13.5
2007-09-11 12:01:06 51°14.823 2°52.009 90.9 1.3 82 13.3
2007-09-11 12:02:06 51°14.825 2°52.042 89.5 1.3 79 13.3
2007-09-11 12:03:06 51°14.826 2°52.076 85.1 1.5 111 13.4
2007-09-11 12:04:06 51°14.827 2°52.111 84.6 1.3 88 13.3
2007-09-11 12:05:06 51°14.829 2°52.146 84.7 1.5 100 13.3
2007-09-11 12:06:06 51°14.831 2°52.182 84.7 1.3 72 13.4
2007-09-11 12:07:06 51°14.832 2°52.215 86.3 1.3 72 13.2
2007-09-11 12:08:05 51°14.833 2°52.245 91.3 1.2 93 13
2007-09-11 12:09:06 51°14.835 2°52.278 90.2 1.4 79 13.2
2007-09-11 12:10:06 51°14.835 2°52.313 91.9 1.4 108 13.2
2007-09-11 12:11:05 51°14.837 2°52.347 90.1 1.5 66 12.8
2007-09-11 12:12:06 51°14.838 2°52.385 88.5 1.4 77 13.3
2007-09-11 12:13:06 51°14.84 2°52.421 85 1.4 74 12.9
2007-09-11 12:14:06 51°14.841 2°52.459 86.8 1.5 102 13.1
2007-09-11 12:15:06 51°14.843 2°52.497 87.7 1.5 78 13
2007-09-11 12:16:06 51°14.846 2°52.539 87.4 1.9 74 13.2
2007-09-11 12:17:06 51°14.85 2°52.61 90 3.8 87 12.8
2007-09-11 12:18:06 51°14.863 2°52.754 85.6 6.5 73 12.7
2007-09-11 12:19:06 51°14.892 2°52.988 82.8 10.3 78 13.5
2007-09-11 12:20:06 51°14.914 2°53.29 91.5 12.8 84 13.3
2007-09-11 12:21:06 51°14.886 2°53.636 108.1 13.9 98 12.4
2007-09-11 12:22:06 51°14.824 2°53.969 118.2 13.5 111 12.5
2007-09-11 12:23:06 51°14.752 2°54.293 124.3 13.2 115 12.7
2007-09-11 12:24:06 51°14.635 2°54.584 130.5 12.8 121 12.8
2007-09-11 12:25:06 51°14.502 2°54.849 141.1 12.4 134 13
2007-09-11 12:26:05 51°14.366 2°55.104 139.1 11.7 143 13.2
2007-09-11 12:27:06 51°14.223 2°55.316 137.1 10.9 137 13.9
2007-09-11 12:28:06 51°14.112 2°55.422 153.1 6 151 13.6
2007-09-11 12:29:06 51°14.034 2°55.483 156 5 155 13.5
2007-09-11 12:30:06 51°13.96 2°55.537 157.1 4.9 157 13.7
2007-09-11 12:31:06 51°13.878 2°55.594 155.4 5.3 153 14
2007-09-11 12:32:06 51°13.797 2°55.658 151.6 5.7 151 14.1
2007-09-11 12:33:06 51°13.727 2°55.757 131.5 5.3 131 15.4
2007-09-11 12:34:06 51°13.677 2°55.864 125.4 4.9 125 13.3
2007-09-11 12:35:06 51°13.633 2°55.966 121.9 4.2 121 13.7
2007-09-11 12:36:06 51°13.61 2°56.048 107.2 2.8 107 13.1
2007-09-11 12:37:07 51°13.602 2°56.091 110.5 0.7 117 10.9
2007-09-11 12:38:06 51°13.599 2°56.098 113.9 0.3 118 10.9